sensor_id;sensor_type;location;lat;lon;timestamp;temperature;humidity
32348;DHT22;18821;44.800;10.326;2024-01-15T00:00:49;2.70;99.90
32348;DHT22;18821;44.800;10.326;2024-01-15T00:03:16;2.60;99.90
32348;DHT22;18821;44.800;10.326;2024-01-15T00:05:42;2.50;99.90
32348;DHT22;18821;44.800;10.326;2024-01-15T00:08:08;2.40;99.90
32348;DHT22;18821;44.800;10.326;2024-01-15T00:10:33;2.40;99.90
32348;DHT22;18821;44.800;10.326;2024-01-15T00:12:59;2.40;99.90
32348;DHT22;18821;44.800;10.326;2024-01-15T00:15:25;2.50;99.90
32348;DHT22;18821;44.800;10.326;2024-01-15T00:17:54;2.50;99.90
32348;DHT22;18821;44.800;10.326;2024-01-15T00:20:20;2.60;99.90
32348;DHT22;18821;44.800;10.326;2024-01-15T00:22:45;2.60;99.90
32348;DHT22;18821;44.800;10.326;2024-01-15T00:25:11;2.70;99.90
32348;DHT22;18821;44.800;10.326;2024-01-15T00:27:37;2.70;99.90
32348;DHT22;18821;44.800;10.326;2024-01-15T00:30:04;2.70;99.90
32348;DHT22;18821;44.800;10.326;2024-01-15T00:32:30;2.80;99.90
32348;DHT22;18821;44.800;10.326;2024-01-15T00:34:56;2.80;99.90
32348;DHT22;18821;44.800;10.326;2024-01-15T00:37:22;2.80;99.90
32348;DHT22;18821;44.800;10.326;2024-01-15T00:39:48;2.80;99.90
32348;DHT22;18821;44.800;10.326;2024-01-15T00:42:14;2.80;99.90
32348;DHT22;18821;44.800;10.326;2024-01-15T00:44:40;2.90;99.90
32348;DHT22;18821;44.800;10.326;2024-01-15T00:47:06;2.90;99.90
32348;DHT22;18821;44.800;10.326;2024-01-15T00:49:32;2.90;99.90
32348;DHT22;18821;44.800;10.326;2024-01-15T00:51:58;2.90;99.90
32348;DHT22;18821;44.800;10.326;2024-01-15T00:54:23;2.90;99.90
32348;DHT22;18821;44.800;10.326;2024-01-15T00:56:49;2.80;99.90
32348;DHT22;18821;44.800;10.326;2024-01-15T00:59:15;2.80;99.90
32348;DHT22;18821;44.800;10.326;2024-01-15T01:01:42;2.70;99.90
32348;DHT22;18821;44.800;10.326;2024-01-15T01:04:11;2.70;99.90
32348;DHT22;18821;44.800;10.326;2024-01-15T01:06:37;2.80;99.90
32348;DHT22;18821;44.800;10.326;2024-01-15T01:09:03;2.80;99.90
32348;DHT22;18821;44.800;10.326;2024-01-15T01:11:30;2.80;99.90
32348;DHT22;18821;44.800;10.326;2024-01-15T01:13:56;2.70;99.90
32348;DHT22;18821;44.800;10.326;2024-01-15T01:16:22;2.80;99.90
32348;DHT22;18821;44.800;10.326;2024-01-15T01:18:48;2.80;99.90
32348;DHT22;18821;44.800;10.326;2024-01-15T01:21:15;2.70;99.90
32348;DHT22;18821;44.800;10.326;2024-01-15T01:23:40;2.40;99.90
32348;DHT22;18821;44.800;10.326;2024-01-15T01:26:06;2.40;99.90
32348;DHT22;18821;44.800;10.326;2024-01-15T01:28:32;2.40;99.90
32348;DHT22;18821;44.800;10.326;2024-01-15T01:30:59;2.30;99.90
32348;DHT22;18821;44.800;10.326;2024-01-15T01:33:25;2.20;99.90
32348;DHT22;18821;44.800;10.326;2024-01-15T01:35:50;2.10;99.90
32348;DHT22;18821;44.800;10.326;2024-01-15T01:38:16;2.10;99.90
32348;DHT22;18821;44.800;10.326;2024-01-15T01:40:42;2.00;99.90
32348;DHT22;18821;44.800;10.326;2024-01-15T01:43:09;2.00;99.90
32348;DHT22;18821;44.800;10.326;2024-01-15T01:45:36;2.00;99.90
32348;DHT22;18821;44.800;10.326;2024-01-15T01:48:02;2.10;99.90
32348;DHT22;18821;44.800;10.326;2024-01-15T01:50:30;2.10;99.90
32348;DHT22;18821;44.800;10.326;2024-01-15T01:52:57;2.20;99.90
32348;DHT22;18821;44.800;10.326;2024-01-15T01:55:26;2.30;99.90
32348;DHT22;18821;44.800;10.326;2024-01-15T01:57:53;2.20;99.90
32348;DHT22;18821;44.800;10.326;2024-01-15T02:00:20;2.20;99.90
32348;DHT22;18821;44.800;10.326;2024-01-15T02:02:46;2.30;99.90
32348;DHT22;18821;44.800;10.326;2024-01-15T02:05:13;2.20;99.90
32348;DHT22;18821;44.800;10.326;2024-01-15T02:07:41;2.10;99.90
32348;DHT22;18821;44.800;10.326;2024-01-15T02:10:07;2.10;99.90
32348;DHT22;18821;44.800;10.326;2024-01-15T02:12:33;2.10;99.90
32348;DHT22;18821;44.800;10.326;2024-01-15T02:14:59;2.00;99.90
32348;DHT22;18821;44.800;10.326;2024-01-15T02:17:25;2.00;99.90
32348;DHT22;18821;44.800;10.326;2024-01-15T02:19:50;2.10;99.90
32348;DHT22;18821;44.800;10.326;2024-01-15T02:22:16;2.00;99.90
32348;DHT22;18821;44.800;10.326;2024-01-15T02:24:42;2.00;99.90
32348;DHT22;18821;44.800;10.326;2024-01-15T02:27:09;2.00;99.90
32348;DHT22;18821;44.800;10.326;2024-01-15T02:29:35;2.00;99.90
32348;DHT22;18821;44.800;10.326;2024-01-15T02:32:05;2.10;99.90
32348;DHT22;18821;44.800;10.326;2024-01-15T02:34:32;2.20;99.90
32348;DHT22;18821;44.800;10.326;2024-01-15T02:36:58;2.30;99.90
32348;DHT22;18821;44.800;10.326;2024-01-15T02:39:24;2.40;99.90
32348;DHT22;18821;44.800;10.326;2024-01-15T02:41:50;2.40;99.90
32348;DHT22;18821;44.800;10.326;2024-01-15T02:44:16;2.40;99.90
32348;DHT22;18821;44.800;10.326;2024-01-15T02:46:42;2.40;99.90
32348;DHT22;18821;44.800;10.326;2024-01-15T02:49:08;2.40;99.90
32348;DHT22;18821;44.800;10.326;2024-01-15T02:51:34;2.50;99.90
32348;DHT22;18821;44.800;10.326;2024-01-15T02:54:00;2.40;99.90
32348;DHT22;18821;44.800;10.326;2024-01-15T02:56:25;2.40;99.90
32348;DHT22;18821;44.800;10.326;2024-01-15T02:58:51;2.40;99.90
32348;DHT22;18821;44.800;10.326;2024-01-15T03:01:19;2.50;99.90
32348;DHT22;18821;44.800;10.326;2024-01-15T03:03:45;2.60;99.90
32348;DHT22;18821;44.800;10.326;2024-01-15T03:06:11;2.60;99.90
32348;DHT22;18821;44.800;10.326;2024-01-15T03:08:37;2.70;99.90
32348;DHT22;18821;44.800;10.326;2024-01-15T03:11:03;2.80;99.90
32348;DHT22;18821;44.800;10.326;2024-01-15T03:13:29;2.80;99.90
32348;DHT22;18821;44.800;10.326;2024-01-15T03:15:55;2.80;99.90
32348;DHT22;18821;44.800;10.326;2024-01-15T03:18:21;2.80;99.90
32348;DHT22;18821;44.800;10.326;2024-01-15T03:20:46;2.90;99.90
32348;DHT22;18821;44.800;10.326;2024-01-15T03:23:12;2.90;99.90
32348;DHT22;18821;44.800;10.326;2024-01-15T03:25:38;2.90;99.90
32348;DHT22;18821;44.800;10.326;2024-01-15T03:28:04;3.00;99.90
32348;DHT22;18821;44.800;10.326;2024-01-15T03:30:30;3.00;99.90
32348;DHT22;18821;44.800;10.326;2024-01-15T03:32:56;3.00;99.90
32348;DHT22;18821;44.800;10.326;2024-01-15T03:35:22;3.00;99.90
32348;DHT22;18821;44.800;10.326;2024-01-15T03:37:48;3.00;99.90
32348;DHT22;18821;44.800;10.326;2024-01-15T03:40:14;3.00;99.90
32348;DHT22;18821;44.800;10.326;2024-01-15T03:42:40;2.80;99.90
32348;DHT22;18821;44.800;10.326;2024-01-15T03:45:06;2.50;99.90
32348;DHT22;18821;44.800;10.326;2024-01-15T03:47:32;2.50;99.90
32348;DHT22;18821;44.800;10.326;2024-01-15T03:49:58;2.60;99.90
32348;DHT22;18821;44.800;10.326;2024-01-15T03:52:24;2.60;99.90
32348;DHT22;18821;44.800;10.326;2024-01-15T03:54:49;2.50;99.90
32348;DHT22;18821;44.800;10.326;2024-01-15T03:57:15;2.30;99.90
32348;DHT22;18821;44.800;10.326;2024-01-15T03:59:41;2.40;99.90
32348;DHT22;18821;44.800;10.326;2024-01-15T04:02:07;2.30;99.90
32348;DHT22;18821;44.800;10.326;2024-01-15T04:04:33;2.20;99.90
32348;DHT22;18821;44.800;10.326;2024-01-15T04:06:59;2.20;99.90
32348;DHT22;18821;44.800;10.326;2024-01-15T04:09:25;2.00;99.90
32348;DHT22;18821;44.800;10.326;2024-01-15T04:11:51;2.00;99.90
32348;DHT22;18821;44.800;10.326;2024-01-15T04:14:16;2.00;99.90
32348;DHT22;18821;44.800;10.326;2024-01-15T04:16:42;1.90;99.90
32348;DHT22;18821;44.800;10.326;2024-01-15T04:19:08;1.80;99.90
32348;DHT22;18821;44.800;10.326;2024-01-15T04:21:34;1.80;99.90
32348;DHT22;18821;44.800;10.326;2024-01-15T04:24:00;1.80;99.90
32348;DHT22;18821;44.800;10.326;2024-01-15T04:26:26;1.70;99.90
32348;DHT22;18821;44.800;10.326;2024-01-15T04:28:52;1.70;99.90
32348;DHT22;18821;44.800;10.326;2024-01-15T04:31:25;1.60;99.90
32348;DHT22;18821;44.800;10.326;2024-01-15T04:33:52;1.70;99.90
32348;DHT22;18821;44.800;10.326;2024-01-15T04:36:18;1.80;99.90
32348;DHT22;18821;44.800;10.326;2024-01-15T04:38:44;1.80;99.90
32348;DHT22;18821;44.800;10.326;2024-01-15T04:41:14;1.60;99.90
32348;DHT22;18821;44.800;10.326;2024-01-15T04:43:41;1.60;99.90
32348;DHT22;18821;44.800;10.326;2024-01-15T04:46:07;1.60;99.90
32348;DHT22;18821;44.800;10.326;2024-01-15T04:48:34;1.60;99.90
32348;DHT22;18821;44.800;10.326;2024-01-15T04:50:59;1.60;99.90
32348;DHT22;18821;44.800;10.326;2024-01-15T04:53:26;1.60;99.90
32348;DHT22;18821;44.800;10.326;2024-01-15T04:55:52;1.50;99.90
32348;DHT22;18821;44.800;10.326;2024-01-15T04:58:18;1.60;99.90
32348;DHT22;18821;44.800;10.326;2024-01-15T05:00:43;1.40;99.90
32348;DHT22;18821;44.800;10.326;2024-01-15T05:03:09;1.40;99.90
32348;DHT22;18821;44.800;10.326;2024-01-15T05:05:35;1.30;99.90
32348;DHT22;18821;44.800;10.326;2024-01-15T05:08:01;1.40;99.90
32348;DHT22;18821;44.800;10.326;2024-01-15T05:10:27;1.30;99.90
32348;DHT22;18821;44.800;10.326;2024-01-15T05:12:53;1.30;99.90
32348;DHT22;18821;44.800;10.326;2024-01-15T05:15:19;1.30;99.90
32348;DHT22;18821;44.800;10.326;2024-01-15T05:17:45;1.30;99.90
32348;DHT22;18821;44.800;10.326;2024-01-15T05:20:11;1.30;99.90
32348;DHT22;18821;44.800;10.326;2024-01-15T05:22:37;1.30;99.90
32348;DHT22;18821;44.800;10.326;2024-01-15T05:25:03;1.20;99.90
32348;DHT22;18821;44.800;10.326;2024-01-15T05:27:29;1.30;99.90
32348;DHT22;18821;44.800;10.326;2024-01-15T05:29:55;1.20;99.90
32348;DHT22;18821;44.800;10.326;2024-01-15T05:32:21;1.30;99.90
32348;DHT22;18821;44.800;10.326;2024-01-15T05:34:47;1.40;99.90
32348;DHT22;18821;44.800;10.326;2024-01-15T05:37:12;1.50;99.90
32348;DHT22;18821;44.800;10.326;2024-01-15T05:39:38;1.70;99.90
32348;DHT22;18821;44.800;10.326;2024-01-15T05:42:04;1.70;99.90
32348;DHT22;18821;44.800;10.326;2024-01-15T05:44:30;1.80;99.90
32348;DHT22;18821;44.800;10.326;2024-01-15T05:46:56;1.90;99.90
32348;DHT22;18821;44.800;10.326;2024-01-15T05:49:22;1.80;99.90
32348;DHT22;18821;44.800;10.326;2024-01-15T05:51:48;1.90;99.90
32348;DHT22;18821;44.800;10.326;2024-01-15T05:54:14;1.90;99.90
32348;DHT22;18821;44.800;10.326;2024-01-15T05:56:40;1.90;99.90
32348;DHT22;18821;44.800;10.326;2024-01-15T05:59:06;1.70;99.90
32348;DHT22;18821;44.800;10.326;2024-01-15T06:01:32;1.50;99.90
32348;DHT22;18821;44.800;10.326;2024-01-15T06:03:58;1.60;99.90
32348;DHT22;18821;44.800;10.326;2024-01-15T06:06:24;1.70;99.90
32348;DHT22;18821;44.800;10.326;2024-01-15T06:08:50;1.80;99.90
32348;DHT22;18821;44.800;10.326;2024-01-15T06:11:15;1.80;99.90
32348;DHT22;18821;44.800;10.326;2024-01-15T06:13:43;1.90;99.90
32348;DHT22;18821;44.800;10.326;2024-01-15T06:16:13;1.90;99.90
32348;DHT22;18821;44.800;10.326;2024-01-15T06:18:39;1.90;99.90
32348;DHT22;18821;44.800;10.326;2024-01-15T06:21:05;2.00;99.90
32348;DHT22;18821;44.800;10.326;2024-01-15T06:23:31;2.00;99.90
32348;DHT22;18821;44.800;10.326;2024-01-15T06:25:57;2.00;99.90
32348;DHT22;18821;44.800;10.326;2024-01-15T06:28:23;1.80;99.90
32348;DHT22;18821;44.800;10.326;2024-01-15T06:30:49;1.70;99.90
32348;DHT22;18821;44.800;10.326;2024-01-15T06:33:14;1.80;99.90
32348;DHT22;18821;44.800;10.326;2024-01-15T06:35:40;1.80;99.90
32348;DHT22;18821;44.800;10.326;2024-01-15T06:38:06;1.90;99.90
32348;DHT22;18821;44.800;10.326;2024-01-15T06:40:32;2.00;99.90
32348;DHT22;18821;44.800;10.326;2024-01-15T06:42:58;2.10;99.90
32348;DHT22;18821;44.800;10.326;2024-01-15T06:45:24;2.10;99.90
32348;DHT22;18821;44.800;10.326;2024-01-15T06:47:50;2.20;99.90
32348;DHT22;18821;44.800;10.326;2024-01-15T06:50:16;2.20;99.90
32348;DHT22;18821;44.800;10.326;2024-01-15T06:52:42;2.30;99.90
32348;DHT22;18821;44.800;10.326;2024-01-15T06:55:08;2.30;99.90
32348;DHT22;18821;44.800;10.326;2024-01-15T06:57:34;2.40;99.90
32348;DHT22;18821;44.800;10.326;2024-01-15T07:00:00;2.50;99.90
32348;DHT22;18821;44.800;10.326;2024-01-15T07:02:26;2.50;99.90
32348;DHT22;18821;44.800;10.326;2024-01-15T07:04:52;2.50;99.90
32348;DHT22;18821;44.800;10.326;2024-01-15T07:07:18;2.60;99.90
32348;DHT22;18821;44.800;10.326;2024-01-15T07:09:45;2.60;99.90
32348;DHT22;18821;44.800;10.326;2024-01-15T07:12:10;2.60;99.90
32348;DHT22;18821;44.800;10.326;2024-01-15T07:14:36;2.50;99.90
32348;DHT22;18821;44.800;10.326;2024-01-15T07:17:02;2.40;99.90
32348;DHT22;18821;44.800;10.326;2024-01-15T07:19:28;2.20;99.90
32348;DHT22;18821;44.800;10.326;2024-01-15T07:21:54;2.20;99.90
32348;DHT22;18821;44.800;10.326;2024-01-15T07:24:20;2.20;99.90
32348;DHT22;18821;44.800;10.326;2024-01-15T07:26:46;2.20;99.90
32348;DHT22;18821;44.800;10.326;2024-01-15T07:29:12;2.20;99.90
32348;DHT22;18821;44.800;10.326;2024-01-15T07:31:38;2.20;99.90
32348;DHT22;18821;44.800;10.326;2024-01-15T07:34:04;2.20;99.90
32348;DHT22;18821;44.800;10.326;2024-01-15T07:36:30;2.20;99.90
32348;DHT22;18821;44.800;10.326;2024-01-15T07:38:55;2.20;99.90
32348;DHT22;18821;44.800;10.326;2024-01-15T07:41:21;2.30;99.90
32348;DHT22;18821;44.800;10.326;2024-01-15T07:43:47;2.40;99.90
32348;DHT22;18821;44.800;10.326;2024-01-15T07:46:13;2.40;99.90
32348;DHT22;18821;44.800;10.326;2024-01-15T07:48:39;2.50;99.90
32348;DHT22;18821;44.800;10.326;2024-01-15T07:51:05;2.40;99.90
32348;DHT22;18821;44.800;10.326;2024-01-15T07:53:31;2.60;99.90
32348;DHT22;18821;44.800;10.326;2024-01-15T07:55:57;2.70;99.90
32348;DHT22;18821;44.800;10.326;2024-01-15T07:58:24;2.80;99.90
32348;DHT22;18821;44.800;10.326;2024-01-15T08:00:50;2.80;99.90
32348;DHT22;18821;44.800;10.326;2024-01-15T08:03:15;2.90;99.90
32348;DHT22;18821;44.800;10.326;2024-01-15T08:05:41;2.90;99.90
32348;DHT22;18821;44.800;10.326;2024-01-15T08:08:07;3.10;99.90
32348;DHT22;18821;44.800;10.326;2024-01-15T08:10:33;3.10;99.90
32348;DHT22;18821;44.800;10.326;2024-01-15T08:12:59;3.10;99.90
32348;DHT22;18821;44.800;10.326;2024-01-15T08:15:25;3.20;99.90
32348;DHT22;18821;44.800;10.326;2024-01-15T08:17:51;3.10;99.90
32348;DHT22;18821;44.800;10.326;2024-01-15T08:20:17;3.30;99.90
32348;DHT22;18821;44.800;10.326;2024-01-15T08:22:42;3.40;99.90
32348;DHT22;18821;44.800;10.326;2024-01-15T08:25:09;3.40;99.90
32348;DHT22;18821;44.800;10.326;2024-01-15T08:27:35;3.40;99.90
32348;DHT22;18821;44.800;10.326;2024-01-15T08:30:01;3.50;99.90
32348;DHT22;18821;44.800;10.326;2024-01-15T08:32:27;3.50;99.90
32348;DHT22;18821;44.800;10.326;2024-01-15T08:34:53;3.50;99.90
32348;DHT22;18821;44.800;10.326;2024-01-15T08:37:19;3.60;99.90
32348;DHT22;18821;44.800;10.326;2024-01-15T08:39:45;3.60;99.90
32348;DHT22;18821;44.800;10.326;2024-01-15T08:42:11;3.70;99.90
32348;DHT22;18821;44.800;10.326;2024-01-15T08:44:37;3.80;99.90
32348;DHT22;18821;44.800;10.326;2024-01-15T08:47:06;3.80;99.90
32348;DHT22;18821;44.800;10.326;2024-01-15T08:49:32;3.70;99.90
32348;DHT22;18821;44.800;10.326;2024-01-15T08:51:58;3.90;99.90
32348;DHT22;18821;44.800;10.326;2024-01-15T08:54:24;3.80;99.90
32348;DHT22;18821;44.800;10.326;2024-01-15T08:56:50;3.80;99.90
32348;DHT22;18821;44.800;10.326;2024-01-15T08:59:15;3.90;99.90
32348;DHT22;18821;44.800;10.326;2024-01-15T09:01:42;4.00;99.90
32348;DHT22;18821;44.800;10.326;2024-01-15T09:04:07;3.90;99.90
32348;DHT22;18821;44.800;10.326;2024-01-15T09:06:33;4.00;99.90
32348;DHT22;18821;44.800;10.326;2024-01-15T09:08:59;3.90;99.90
32348;DHT22;18821;44.800;10.326;2024-01-15T09:11:25;4.00;99.90
32348;DHT22;18821;44.800;10.326;2024-01-15T09:13:51;4.00;99.90
32348;DHT22;18821;44.800;10.326;2024-01-15T09:16:17;3.80;99.90
32348;DHT22;18821;44.800;10.326;2024-01-15T09:18:43;3.80;99.90
32348;DHT22;18821;44.800;10.326;2024-01-15T09:21:09;3.70;99.90
32348;DHT22;18821;44.800;10.326;2024-01-15T09:23:35;3.70;99.90
32348;DHT22;18821;44.800;10.326;2024-01-15T09:26:01;3.90;99.90
32348;DHT22;18821;44.800;10.326;2024-01-15T09:28:27;4.00;99.90
32348;DHT22;18821;44.800;10.326;2024-01-15T09:30:53;4.20;99.90
32348;DHT22;18821;44.800;10.326;2024-01-15T09:33:19;4.30;99.90
32348;DHT22;18821;44.800;10.326;2024-01-15T09:35:45;4.50;99.90
32348;DHT22;18821;44.800;10.326;2024-01-15T09:38:11;4.50;99.90
32348;DHT22;18821;44.800;10.326;2024-01-15T09:40:38;4.60;99.90
32348;DHT22;18821;44.800;10.326;2024-01-15T09:43:04;4.50;99.90
32348;DHT22;18821;44.800;10.326;2024-01-15T09:45:31;4.50;99.90
32348;DHT22;18821;44.800;10.326;2024-01-15T09:47:57;4.60;99.90
32348;DHT22;18821;44.800;10.326;2024-01-15T09:50:23;4.80;99.90
32348;DHT22;18821;44.800;10.326;2024-01-15T09:52:49;4.80;99.90
32348;DHT22;18821;44.800;10.326;2024-01-15T09:55:17;4.90;99.90
32348;DHT22;18821;44.800;10.326;2024-01-15T09:57:44;5.00;99.90
32348;DHT22;18821;44.800;10.326;2024-01-15T10:00:10;5.00;99.90
32348;DHT22;18821;44.800;10.326;2024-01-15T10:02:36;5.10;99.90
32348;DHT22;18821;44.800;10.326;2024-01-15T10:05:04;5.20;99.90
32348;DHT22;18821;44.800;10.326;2024-01-15T10:07:30;5.00;99.90
32348;DHT22;18821;44.800;10.326;2024-01-15T10:09:59;5.10;99.90
32348;DHT22;18821;44.800;10.326;2024-01-15T10:12:25;5.30;99.90
32348;DHT22;18821;44.800;10.326;2024-01-15T10:14:52;5.50;99.90
32348;DHT22;18821;44.800;10.326;2024-01-15T10:17:18;5.60;99.90
32348;DHT22;18821;44.800;10.326;2024-01-15T10:19:48;5.70;99.90
32348;DHT22;18821;44.800;10.326;2024-01-15T10:22:14;5.80;99.90
32348;DHT22;18821;44.800;10.326;2024-01-15T10:24:46;5.50;99.90
32348;DHT22;18821;44.800;10.326;2024-01-15T10:27:12;5.50;99.90
32348;DHT22;18821;44.800;10.326;2024-01-15T10:29:38;5.60;99.90
32348;DHT22;18821;44.800;10.326;2024-01-15T10:32:08;5.40;99.90
32348;DHT22;18821;44.800;10.326;2024-01-15T10:34:41;5.30;99.90
32348;DHT22;18821;44.800;10.326;2024-01-15T10:37:10;5.10;99.90
32348;DHT22;18821;44.800;10.326;2024-01-15T10:39:36;5.10;99.90
32348;DHT22;18821;44.800;10.326;2024-01-15T10:42:03;5.10;99.90
32348;DHT22;18821;44.800;10.326;2024-01-15T10:44:29;5.30;99.90
32348;DHT22;18821;44.800;10.326;2024-01-15T10:46:56;5.40;99.90
32348;DHT22;18821;44.800;10.326;2024-01-15T10:49:23;5.50;99.90
32348;DHT22;18821;44.800;10.326;2024-01-15T10:51:52;5.30;99.90
32348;DHT22;18821;44.800;10.326;2024-01-15T10:54:19;5.50;99.90
32348;DHT22;18821;44.800;10.326;2024-01-15T10:56:45;5.60;99.90
32348;DHT22;18821;44.800;10.326;2024-01-15T10:59:13;5.70;99.90
32348;DHT22;18821;44.800;10.326;2024-01-15T11:01:39;5.70;99.90
32348;DHT22;18821;44.800;10.326;2024-01-15T11:04:05;5.80;99.90
32348;DHT22;18821;44.800;10.326;2024-01-15T11:06:49;5.50;99.90
32348;DHT22;18821;44.800;10.326;2024-01-15T11:09:15;5.60;99.90
32348;DHT22;18821;44.800;10.326;2024-01-15T11:11:47;5.60;99.90
32348;DHT22;18821;44.800;10.326;2024-01-15T11:14:34;5.70;99.90
32348;DHT22;18821;44.800;10.326;2024-01-15T11:17:01;5.90;99.90
32348;DHT22;18821;44.800;10.326;2024-01-15T11:19:48;6.10;99.90
32348;DHT22;18821;44.800;10.326;2024-01-15T11:24:54;6.30;99.90
32348;DHT22;18821;44.800;10.326;2024-01-15T11:27:46;6.30;99.90
32348;DHT22;18821;44.800;10.326;2024-01-15T11:30:19;6.20;99.90
32348;DHT22;18821;44.800;10.326;2024-01-15T11:32:48;6.30;99.90
32348;DHT22;18821;44.800;10.326;2024-01-15T11:35:14;6.40;99.90
32348;DHT22;18821;44.800;10.326;2024-01-15T11:40:36;6.40;99.90
32348;DHT22;18821;44.800;10.326;2024-01-15T11:43:04;6.60;99.90
32348;DHT22;18821;44.800;10.326;2024-01-15T11:45:31;6.60;99.90
32348;DHT22;18821;44.800;10.326;2024-01-15T11:48:09;6.70;99.90
32348;DHT22;18821;44.800;10.326;2024-01-15T11:50:43;6.70;99.90
32348;DHT22;18821;44.800;10.326;2024-01-15T11:53:33;6.90;99.90
32348;DHT22;18821;44.800;10.326;2024-01-15T11:56:03;7.00;99.90
32348;DHT22;18821;44.800;10.326;2024-01-15T11:58:31;6.80;99.90
32348;DHT22;18821;44.800;10.326;2024-01-15T12:00:58;7.00;99.90
32348;DHT22;18821;44.800;10.326;2024-01-15T12:03:24;7.20;99.90
32348;DHT22;18821;44.800;10.326;2024-01-15T12:05:54;7.30;99.90
32348;DHT22;18821;44.800;10.326;2024-01-15T12:08:23;7.30;99.90
32348;DHT22;18821;44.800;10.326;2024-01-15T12:10:49;7.40;99.90
32348;DHT22;18821;44.800;10.326;2024-01-15T12:13:15;7.40;99.90
32348;DHT22;18821;44.800;10.326;2024-01-15T12:15:44;7.40;99.90
32348;DHT22;18821;44.800;10.326;2024-01-15T12:18:12;7.60;99.90
32348;DHT22;18821;44.800;10.326;2024-01-15T12:20:40;7.30;99.90
32348;DHT22;18821;44.800;10.326;2024-01-15T12:23:08;7.20;99.90
32348;DHT22;18821;44.800;10.326;2024-01-15T12:25:34;7.10;99.90
32348;DHT22;18821;44.800;10.326;2024-01-15T12:28:01;7.30;99.90
32348;DHT22;18821;44.800;10.326;2024-01-15T12:30:28;7.40;99.90
32348;DHT22;18821;44.800;10.326;2024-01-15T12:32:54;7.50;99.90
32348;DHT22;18821;44.800;10.326;2024-01-15T12:35:20;7.40;99.90
32348;DHT22;18821;44.800;10.326;2024-01-15T12:37:47;7.40;99.90
32348;DHT22;18821;44.800;10.326;2024-01-15T12:40:14;7.30;99.90
32348;DHT22;18821;44.800;10.326;2024-01-15T12:42:44;7.40;99.90
32348;DHT22;18821;44.800;10.326;2024-01-15T12:45:11;7.50;99.90
32348;DHT22;18821;44.800;10.326;2024-01-15T12:47:39;7.50;99.90
32348;DHT22;18821;44.800;10.326;2024-01-15T12:50:12;7.50;99.90
32348;DHT22;18821;44.800;10.326;2024-01-15T12:52:42;7.60;99.90
32348;DHT22;18821;44.800;10.326;2024-01-15T12:55:09;7.40;99.90
32348;DHT22;18821;44.800;10.326;2024-01-15T12:57:35;7.60;99.90
32348;DHT22;18821;44.800;10.326;2024-01-15T13:00:02;7.70;99.90
32348;DHT22;18821;44.800;10.326;2024-01-15T13:02:33;7.60;99.90
32348;DHT22;18821;44.800;10.326;2024-01-15T13:04:59;7.60;99.90
32348;DHT22;18821;44.800;10.326;2024-01-15T13:07:26;7.70;99.90
32348;DHT22;18821;44.800;10.326;2024-01-15T13:09:52;7.80;99.90
32348;DHT22;18821;44.800;10.326;2024-01-15T13:12:20;7.60;99.90
32348;DHT22;18821;44.800;10.326;2024-01-15T13:14:46;7.70;99.90
32348;DHT22;18821;44.800;10.326;2024-01-15T13:17:13;7.80;99.90
32348;DHT22;18821;44.800;10.326;2024-01-15T13:19:42;8.00;99.90
32348;DHT22;18821;44.800;10.326;2024-01-15T13:22:08;8.10;99.90
32348;DHT22;18821;44.800;10.326;2024-01-15T13:24:35;8.30;99.90
32348;DHT22;18821;44.800;10.326;2024-01-15T13:27:05;8.30;99.90
32348;DHT22;18821;44.800;10.326;2024-01-15T13:29:31;8.30;99.90
32348;DHT22;18821;44.800;10.326;2024-01-15T13:31:58;8.20;99.90
32348;DHT22;18821;44.800;10.326;2024-01-15T13:34:24;7.90;99.90
32348;DHT22;18821;44.800;10.326;2024-01-15T13:36:50;7.80;99.90
32348;DHT22;18821;44.800;10.326;2024-01-15T13:39:16;7.80;99.90
32348;DHT22;18821;44.800;10.326;2024-01-15T13:41:48;8.00;99.90
32348;DHT22;18821;44.800;10.326;2024-01-15T13:44:14;7.90;99.90
32348;DHT22;18821;44.800;10.326;2024-01-15T13:46:40;8.00;99.90
32348;DHT22;18821;44.800;10.326;2024-01-15T13:49:07;8.10;99.90
32348;DHT22;18821;44.800;10.326;2024-01-15T13:51:35;8.20;99.90
32348;DHT22;18821;44.800;10.326;2024-01-15T13:54:02;8.10;99.90
32348;DHT22;18821;44.800;10.326;2024-01-15T13:56:30;8.30;99.90
32348;DHT22;18821;44.800;10.326;2024-01-15T13:58:58;8.50;99.90
32348;DHT22;18821;44.800;10.326;2024-01-15T14:01:25;8.50;99.90
32348;DHT22;18821;44.800;10.326;2024-01-15T14:03:51;8.50;99.90
32348;DHT22;18821;44.800;10.326;2024-01-15T14:06:17;8.60;99.90
32348;DHT22;18821;44.800;10.326;2024-01-15T14:08:43;8.70;99.90
32348;DHT22;18821;44.800;10.326;2024-01-15T14:11:09;8.70;99.90
32348;DHT22;18821;44.800;10.326;2024-01-15T14:13:35;8.70;99.90
32348;DHT22;18821;44.800;10.326;2024-01-15T14:16:01;8.80;99.90
32348;DHT22;18821;44.800;10.326;2024-01-15T14:18:27;8.60;99.90
32348;DHT22;18821;44.800;10.326;2024-01-15T14:20:53;8.50;99.90
32348;DHT22;18821;44.800;10.326;2024-01-15T14:23:20;8.50;99.90
32348;DHT22;18821;44.800;10.326;2024-01-15T14:25:46;8.60;99.90
32348;DHT22;18821;44.800;10.326;2024-01-15T14:28:12;8.60;99.90
32348;DHT22;18821;44.800;10.326;2024-01-15T14:30:38;8.60;99.90
32348;DHT22;18821;44.800;10.326;2024-01-15T14:33:04;8.50;99.90
32348;DHT22;18821;44.800;10.326;2024-01-15T14:35:30;8.50;99.90
32348;DHT22;18821;44.800;10.326;2024-01-15T14:37:56;8.60;99.90
32348;DHT22;18821;44.800;10.326;2024-01-15T14:40:25;8.60;99.90
32348;DHT22;18821;44.800;10.326;2024-01-15T14:42:51;8.60;99.90
32348;DHT22;18821;44.800;10.326;2024-01-15T14:45:17;8.60;99.90
32348;DHT22;18821;44.800;10.326;2024-01-15T14:47:43;8.50;99.90
32348;DHT22;18821;44.800;10.326;2024-01-15T14:50:10;8.50;99.90
32348;DHT22;18821;44.800;10.326;2024-01-15T14:52:36;8.40;99.90
32348;DHT22;18821;44.800;10.326;2024-01-15T14:55:02;8.40;99.90
32348;DHT22;18821;44.800;10.326;2024-01-15T14:57:29;8.40;99.90
32348;DHT22;18821;44.800;10.326;2024-01-15T14:59:55;8.30;99.90
32348;DHT22;18821;44.800;10.326;2024-01-15T15:02:22;8.20;99.90
32348;DHT22;18821;44.800;10.326;2024-01-15T15:04:49;8.20;99.90
32348;DHT22;18821;44.800;10.326;2024-01-15T15:07:15;8.10;99.90
32348;DHT22;18821;44.800;10.326;2024-01-15T15:09:41;8.10;99.90
32348;DHT22;18821;44.800;10.326;2024-01-15T15:12:07;8.00;99.90
32348;DHT22;18821;44.800;10.326;2024-01-15T15:14:33;8.00;99.90
32348;DHT22;18821;44.800;10.326;2024-01-15T15:17:05;7.90;99.90
32348;DHT22;18821;44.800;10.326;2024-01-15T15:19:31;7.90;99.90
32348;DHT22;18821;44.800;10.326;2024-01-15T15:21:58;7.80;99.90
32348;DHT22;18821;44.800;10.326;2024-01-15T15:24:24;7.80;99.90
32348;DHT22;18821;44.800;10.326;2024-01-15T15:26:50;7.70;99.90
32348;DHT22;18821;44.800;10.326;2024-01-15T15:29:16;7.70;99.90
32348;DHT22;18821;44.800;10.326;2024-01-15T15:31:45;7.60;99.90